sensor_id;sensor_type;location;lat;lon;timestamp;pressure;altitude;pressure_sealevel;temperature;humidity
40794;BME280;26502;51.886;15.604;2023-08-21T00:05:03;101272.17;;;24.13;62.50
40794;BME280;26502;51.886;15.604;2023-08-21T00:10:10;101275.56;;;24.09;62.73
40794;BME280;26502;51.886;15.604;2023-08-21T00:15:19;101266.36;;;24.06;62.61
40794;BME280;26502;51.886;15.604;2023-08-21T00:20:25;101264.68;;;24.00;62.77
40794;BME280;26502;51.886;15.604;2023-08-21T00:25:33;101259.80;;;23.95;62.75
40794;BME280;26502;51.886;15.604;2023-08-21T00:30:39;101255.27;;;23.97;62.73
40794;BME280;26502;51.886;15.604;2023-08-21T00:35:45;101258.23;;;23.99;62.76
40794;BME280;26502;51.886;15.604;2023-08-21T00:40:51;101262.45;;;23.94;62.94
40794;BME280;26502;51.886;15.604;2023-08-21T00:45:57;101265.67;;;23.94;62.90
40794;BME280;26502;51.886;15.604;2023-08-21T00:51:03;101287.92;;;23.79;62.89
40794;BME280;26502;51.886;15.604;2023-08-21T00:56:11;101299.73;;;23.66;63.20
40794;BME280;26502;51.886;15.604;2023-08-21T01:01:19;101316.94;;;23.71;63.33
40794;BME280;26502;51.886;15.604;2023-08-21T01:06:28;101321.21;;;23.63;63.35
40794;BME280;26502;51.886;15.604;2023-08-21T01:11:38;101305.04;;;23.59;63.66
40794;BME280;26502;51.886;15.604;2023-08-21T01:16:48;101302.91;;;23.63;63.65
40794;BME280;26502;51.886;15.604;2023-08-21T01:21:59;101297.69;;;23.62;63.71
40794;BME280;26502;51.886;15.604;2023-08-21T01:27:05;101305.30;;;23.62;63.78
40794;BME280;26502;51.886;15.604;2023-08-21T01:32:24;101303.20;;;23.57;63.71
40794;BME280;26502;51.886;15.604;2023-08-21T01:37:33;101292.59;;;23.53;63.55
40794;BME280;26502;51.886;15.604;2023-08-21T01:42:39;101270.38;;;23.46;63.47
40794;BME280;26502;51.886;15.604;2023-08-21T01:47:46;101268.63;;;23.40;63.08
40794;BME280;26502;51.886;15.604;2023-08-21T01:52:52;101261.24;;;23.25;62.69
40794;BME280;26502;51.886;15.604;2023-08-21T01:57:57;101265.89;;;23.11;62.37
40794;BME280;26502;51.886;15.604;2023-08-21T02:03:04;101259.84;;;23.03;62.05
40794;BME280;26502;51.886;15.604;2023-08-21T02:08:13;101268.52;;;22.91;61.85
40794;BME280;26502;51.886;15.604;2023-08-21T02:13:19;101268.14;;;22.76;61.23
40794;BME280;26502;51.886;15.604;2023-08-21T02:18:26;101272.58;;;22.73;61.04
40794;BME280;26502;51.886;15.604;2023-08-21T02:23:32;101273.77;;;22.71;60.49
40794;BME280;26502;51.886;15.604;2023-08-21T02:28:37;101283.73;;;22.69;60.39
40794;BME280;26502;51.886;15.604;2023-08-21T02:33:43;101285.92;;;22.71;60.11
40794;BME280;26502;51.886;15.604;2023-08-21T02:38:51;101288.29;;;22.71;59.95
40794;BME280;26502;51.886;15.604;2023-08-21T02:44:02;101284.34;;;22.61;59.76
40794;BME280;26502;51.886;15.604;2023-08-21T02:49:08;101293.45;;;22.59;59.95
40794;BME280;26502;51.886;15.604;2023-08-21T02:54:14;101295.17;;;22.56;59.78
40794;BME280;26502;51.886;15.604;2023-08-21T02:59:21;101293.00;;;22.53;59.79
40794;BME280;26502;51.886;15.604;2023-08-21T03:04:26;101287.73;;;22.54;59.78
40794;BME280;26502;51.886;15.604;2023-08-21T03:09:32;101291.52;;;22.52;60.00
40794;BME280;26502;51.886;15.604;2023-08-21T03:14:38;101301.15;;;22.46;59.74
40794;BME280;26502;51.886;15.604;2023-08-21T03:19:45;101304.48;;;22.40;60.23
40794;BME280;26502;51.886;15.604;2023-08-21T03:24:51;101301.43;;;22.40;60.10
40794;BME280;26502;51.886;15.604;2023-08-21T03:29:57;101302.98;;;22.33;60.06
40794;BME280;26502;51.886;15.604;2023-08-21T03:35:06;101300.73;;;22.31;60.16
40794;BME280;26502;51.886;15.604;2023-08-21T03:40:12;101297.78;;;22.35;60.61
40794;BME280;26502;51.886;15.604;2023-08-21T03:45:19;101298.09;;;22.33;60.38
40794;BME280;26502;51.886;15.604;2023-08-21T03:50:25;101291.79;;;22.32;60.51
40794;BME280;26502;51.886;15.604;2023-08-21T03:55:30;101298.98;;;22.33;60.47
40794;BME280;26502;51.886;15.604;2023-08-21T04:00:36;101295.15;;;22.26;60.49
40794;BME280;26502;51.886;15.604;2023-08-21T04:05:42;101296.13;;;22.17;60.60
40794;BME280;26502;51.886;15.604;2023-08-21T04:10:48;101295.28;;;22.03;60.85
40794;BME280;26502;51.886;15.604;2023-08-21T04:15:54;101296.46;;;22.00;61.06
40794;BME280;26502;51.886;15.604;2023-08-21T04:21:01;101294.60;;;21.98;61.30
40794;BME280;26502;51.886;15.604;2023-08-21T04:26:07;101288.45;;;21.95;61.21
40794;BME280;26502;51.886;15.604;2023-08-21T04:31:14;101288.56;;;21.91;61.42
40794;BME280;26502;51.886;15.604;2023-08-21T04:36:20;101297.42;;;21.91;61.58
40794;BME280;26502;51.886;15.604;2023-08-21T04:41:27;101294.54;;;21.91;61.66
40794;BME280;26502;51.886;15.604;2023-08-21T04:46:35;101284.97;;;21.83;61.97
40794;BME280;26502;51.886;15.604;2023-08-21T04:51:41;101280.58;;;21.79;62.10
40794;BME280;26502;51.886;15.604;2023-08-21T04:56:47;101284.96;;;21.81;62.35
40794;BME280;26502;51.886;15.604;2023-08-21T05:01:54;101292.06;;;21.80;62.16
40794;BME280;26502;51.886;15.604;2023-08-21T05:07:00;101300.35;;;21.57;62.03
40794;BME280;26502;51.886;15.604;2023-08-21T05:12:09;101308.31;;;21.51;62.45
40794;BME280;26502;51.886;15.604;2023-08-21T05:17:15;101315.23;;;21.54;62.52
40794;BME280;26502;51.886;15.604;2023-08-21T05:22:21;101312.41;;;21.55;62.78
40794;BME280;26502;51.886;15.604;2023-08-21T05:27:27;101302.23;;;21.77;62.92
40794;BME280;26502;51.886;15.604;2023-08-21T05:32:33;101302.27;;;21.92;63.01
40794;BME280;26502;51.886;15.604;2023-08-21T05:37:38;101303.41;;;22.06;62.98
40794;BME280;26502;51.886;15.604;2023-08-21T05:42:45;101301.34;;;22.15;62.94
40794;BME280;26502;51.886;15.604;2023-08-21T05:47:51;101299.20;;;22.17;62.89
40794;BME280;26502;51.886;15.604;2023-08-21T05:52:57;101304.65;;;22.22;63.10
40794;BME280;26502;51.886;15.604;2023-08-21T05:58:06;101317.42;;;22.34;63.03
40794;BME280;26502;51.886;15.604;2023-08-21T06:03:12;101322.61;;;22.59;63.02
40794;BME280;26502;51.886;15.604;2023-08-21T06:08:41;101330.70;;;22.75;63.06
40794;BME280;26502;51.886;15.604;2023-08-21T06:13:48;101330.29;;;22.76;62.78
40794;BME280;26502;51.886;15.604;2023-08-21T06:18:54;101325.71;;;22.64;62.82
40794;BME280;26502;51.886;15.604;2023-08-21T06:24:00;101335.30;;;22.76;63.02
40794;BME280;26502;51.886;15.604;2023-08-21T06:29:06;101333.73;;;22.86;62.86
40794;BME280;26502;51.886;15.604;2023-08-21T06:34:12;101334.92;;;22.99;62.94
40794;BME280;26502;51.886;15.604;2023-08-21T06:39:18;101340.02;;;23.04;62.62
40794;BME280;26502;51.886;15.604;2023-08-21T06:44:25;101344.86;;;22.87;62.47
40794;BME280;26502;51.886;15.604;2023-08-21T06:49:30;101356.45;;;22.74;62.42
40794;BME280;26502;51.886;15.604;2023-08-21T06:54:36;101345.73;;;22.85;62.98
40794;BME280;26502;51.886;15.604;2023-08-21T06:59:43;101346.92;;;23.06;62.74
40794;BME280;26502;51.886;15.604;2023-08-21T07:04:48;101346.02;;;23.16;62.24
40794;BME280;26502;51.886;15.604;2023-08-21T07:09:54;101344.73;;;23.06;62.13
40794;BME280;26502;51.886;15.604;2023-08-21T07:15:00;101347.79;;;23.01;62.04
40794;BME280;26502;51.886;15.604;2023-08-21T07:20:08;101348.04;;;23.18;61.94
40794;BME280;26502;51.886;15.604;2023-08-21T07:25:15;101349.92;;;23.31;61.78
40794;BME280;26502;51.886;15.604;2023-08-21T07:30:21;101342.91;;;23.45;61.33
40794;BME280;26502;51.886;15.604;2023-08-21T07:35:27;101340.57;;;23.47;61.21
40794;BME280;26502;51.886;15.604;2023-08-21T07:40:33;101335.48;;;23.95;60.92
40794;BME280;26502;51.886;15.604;2023-08-21T07:45:39;101336.27;;;24.28;60.33
40794;BME280;26502;51.886;15.604;2023-08-21T07:50:52;101340.67;;;24.48;59.28
40794;BME280;26502;51.886;15.604;2023-08-21T07:55:58;101345.60;;;24.79;58.94
40794;BME280;26502;51.886;15.604;2023-08-21T08:01:04;101346.56;;;24.83;57.69
40794;BME280;26502;51.886;15.604;2023-08-21T08:06:10;101347.25;;;24.73;57.13
40794;BME280;26502;51.886;15.604;2023-08-21T08:11:15;101348.06;;;24.94;56.96
40794;BME280;26502;51.886;15.604;2023-08-21T08:16:21;101349.30;;;25.21;56.63
40794;BME280;26502;51.886;15.604;2023-08-21T08:21:27;101355.30;;;25.51;56.32
40794;BME280;26502;51.886;15.604;2023-08-21T08:26:33;101356.66;;;25.87;55.73
40794;BME280;26502;51.886;15.604;2023-08-21T08:31:39;101360.05;;;26.00;55.63
40794;BME280;26502;51.886;15.604;2023-08-21T08:36:44;101360.20;;;26.25;54.76
40794;BME280;26502;51.886;15.604;2023-08-21T08:41:56;101358.80;;;25.93;54.20
40794;BME280;26502;51.886;15.604;2023-08-21T08:47:04;101362.48;;;26.12;54.29
40794;BME280;26502;51.886;15.604;2023-08-21T08:52:11;101354.98;;;26.18;53.84
40794;BME280;26502;51.886;15.604;2023-08-21T08:57:16;101353.87;;;26.27;53.75
40794;BME280;26502;51.886;15.604;2023-08-21T09:02:22;101353.21;;;26.20;53.10
40794;BME280;26502;51.886;15.604;2023-08-21T09:07:29;101353.48;;;26.21;52.28
40794;BME280;26502;51.886;15.604;2023-08-21T09:12:35;101348.91;;;26.34;52.11
40794;BME280;26502;51.886;15.604;2023-08-21T09:17:41;101339.86;;;26.43;51.30
40794;BME280;26502;51.886;15.604;2023-08-21T09:22:54;101331.73;;;26.53;51.00
40794;BME280;26502;51.886;15.604;2023-08-21T09:28:03;101329.83;;;26.78;50.72
40794;BME280;26502;51.886;15.604;2023-08-21T09:33:09;101328.11;;;26.85;50.90
40794;BME280;26502;51.886;15.604;2023-08-21T09:38:15;101324.28;;;27.11;50.17
40794;BME280;26502;51.886;15.604;2023-08-21T09:43:22;101315.52;;;27.37;49.97
40794;BME280;26502;51.886;15.604;2023-08-21T09:48:28;101310.56;;;27.35;49.45
40794;BME280;26502;51.886;15.604;2023-08-21T09:53:35;101310.25;;;27.72;49.62
40794;BME280;26502;51.886;15.604;2023-08-21T09:58:41;101305.73;;;27.71;48.88
40794;BME280;26502;51.886;15.604;2023-08-21T10:03:48;101305.17;;;27.48;48.54
40794;BME280;26502;51.886;15.604;2023-08-21T10:08:55;101292.87;;;27.74;48.60
40794;BME280;26502;51.886;15.604;2023-08-21T10:14:02;101287.66;;;28.36;48.63
40794;BME280;26502;51.886;15.604;2023-08-21T10:19:08;101294.06;;;28.65;48.06
40794;BME280;26502;51.886;15.604;2023-08-21T10:24:27;101289.53;;;28.50;47.34
40794;BME280;26502;51.886;15.604;2023-08-21T10:29:34;101283.28;;;28.82;47.30
40794;BME280;26502;51.886;15.604;2023-08-21T10:34:53;101287.10;;;28.84;46.16
40794;BME280;26502;51.886;15.604;2023-08-21T10:39:58;101285.79;;;28.57;46.19
40794;BME280;26502;51.886;15.604;2023-08-21T10:45:11;101289.73;;;28.76;46.22
40794;BME280;26502;51.886;15.604;2023-08-21T10:50:18;101289.77;;;28.99;46.15
40794;BME280;26502;51.886;15.604;2023-08-21T10:55:24;101295.47;;;28.86;45.62
40794;BME280;26502;51.886;15.604;2023-08-21T11:00:31;101297.15;;;28.81;46.12
40794;BME280;26502;51.886;15.604;2023-08-21T11:05:40;101298.23;;;28.77;46.14
40794;BME280;26502;51.886;15.604;2023-08-21T11:10:47;101295.12;;;28.86;46.20
40794;BME280;26502;51.886;15.604;2023-08-21T11:16:00;101294.54;;;28.77;45.86
40794;BME280;26502;51.886;15.604;2023-08-21T11:21:07;101290.21;;;28.84;46.13
40794;BME280;26502;51.886;15.604;2023-08-21T11:26:14;101276.68;;;28.77;45.92
40794;BME280;26502;51.886;15.604;2023-08-21T11:31:21;101273.29;;;29.25;46.19
40794;BME280;26502;51.886;15.604;2023-08-21T11:36:26;101277.42;;;29.42;45.12
40794;BME280;26502;51.886;15.604;2023-08-21T11:41:32;101278.31;;;29.46;45.41
40794;BME280;26502;51.886;15.604;2023-08-21T11:46:57;101277.36;;;29.51;44.98
40794;BME280;26502;51.886;15.604;2023-08-21T11:52:08;101270.45;;;29.49;44.89
40794;BME280;26502;51.886;15.604;2023-08-21T11:57:15;101271.66;;;29.29;44.92
40794;BME280;26502;51.886;15.604;2023-08-21T12:02:23;101273.45;;;29.47;44.83
40794;BME280;26502;51.886;15.604;2023-08-21T12:07:29;101271.92;;;29.54;45.06
40794;BME280;26502;51.886;15.604;2023-08-21T12:12:35;101268.66;;;29.54;45.17
40794;BME280;26502;51.886;15.604;2023-08-21T12:17:41;101269.55;;;29.40;45.09
40794;BME280;26502;51.886;15.604;2023-08-21T12:22:47;101267.65;;;29.27;45.38
40794;BME280;26502;51.886;15.604;2023-08-21T12:27:53;101267.96;;;29.11;45.21
40794;BME280;26502;51.886;15.604;2023-08-21T12:32:59;101268.38;;;28.99;45.36
40794;BME280;26502;51.886;15.604;2023-08-21T12:38:11;101260.23;;;29.02;45.38
40794;BME280;26502;51.886;15.604;2023-08-21T12:43:17;101260.80;;;29.11;45.42
40794;BME280;26502;51.886;15.604;2023-08-21T12:48:23;101267.35;;;28.90;45.54
40794;BME280;26502;51.886;15.604;2023-08-21T12:53:30;101269.45;;;28.87;45.92
40794;BME280;26502;51.886;15.604;2023-08-21T12:58:35;101266.42;;;28.86;46.26
40794;BME280;26502;51.886;15.604;2023-08-21T13:03:45;101269.37;;;28.86;46.40
40794;BME280;26502;51.886;15.604;2023-08-21T13:08:51;101268.20;;;28.94;46.60
40794;BME280;26502;51.886;15.604;2023-08-21T13:13:59;101266.90;;;28.96;46.60
40794;BME280;26502;51.886;15.604;2023-08-21T13:19:05;101269.54;;;28.92;46.55
40794;BME280;26502;51.886;15.604;2023-08-21T13:24:11;101268.45;;;29.04;46.49
40794;BME280;26502;51.886;15.604;2023-08-21T13:29:17;101267.54;;;28.95;46.53
40794;BME280;26502;51.886;15.604;2023-08-21T13:34:23;101252.70;;;29.29;46.55
40794;BME280;26502;51.886;15.604;2023-08-21T13:39:29;101259.19;;;29.36;46.15
40794;BME280;26502;51.886;15.604;2023-08-21T13:44:36;101261.16;;;29.13;46.16
40794;BME280;26502;51.886;15.604;2023-08-21T13:49:41;101256.36;;;29.06;46.32
40794;BME280;26502;51.886;15.604;2023-08-21T13:54:47;101261.98;;;28.74;46.36
40794;BME280;26502;51.886;15.604;2023-08-21T13:59:54;101259.15;;;28.53;46.64
40794;BME280;26502;51.886;15.604;2023-08-21T14:05:00;101249.96;;;28.38;46.92
40794;BME280;26502;51.886;15.604;2023-08-21T14:10:07;101254.75;;;28.43;47.30
40794;BME280;26502;51.886;15.604;2023-08-21T14:15:13;101249.91;;;28.45;47.58
40794;BME280;26502;51.886;15.604;2023-08-21T14:20:19;101252.40;;;28.58;47.73
40794;BME280;26502;51.886;15.604;2023-08-21T14:25:26;101241.61;;;28.75;47.66
40794;BME280;26502;51.886;15.604;2023-08-21T14:30:33;101241.99;;;28.87;47.56
40794;BME280;26502;51.886;15.604;2023-08-21T14:35:39;101239.19;;;28.83;47.52
40794;BME280;26502;51.886;15.604;2023-08-21T14:40:45;101237.77;;;28.93;47.36
40794;BME280;26502;51.886;15.604;2023-08-21T14:45:50;101236.52;;;29.03;46.48
40794;BME280;26502;51.886;15.604;2023-08-21T14:50:57;101231.09;;;29.46;46.30
40794;BME280;26502;51.886;15.604;2023-08-21T14:56:03;101229.23;;;30.07;45.38
40794;BME280;26502;51.886;15.604;2023-08-21T15:01:09;101228.66;;;30.33;44.79
40794;BME280;26502;51.886;15.604;2023-08-21T15:06:14;101226.77;;;30.66;44.22
40794;BME280;26502;51.886;15.604;2023-08-21T15:11:21;101224.44;;;30.66;43.52
40794;BME280;26502;51.886;15.604;2023-08-21T15:16:29;101232.13;;;30.21;42.80
40794;BME280;26502;51.886;15.604;2023-08-21T15:21:35;101239.57;;;29.54;42.57
40794;BME280;26502;51.886;15.604;2023-08-21T15:26:41;101231.43;;;29.39;42.21
40794;BME280;26502;51.886;15.604;2023-08-21T15:31:47;101230.43;;;29.42;41.92
40794;BME280;26502;51.886;15.604;2023-08-21T15:36:52;101225.52;;;29.13;41.68
40794;BME280;26502;51.886;15.604;2023-08-21T15:41:58;101227.95;;;28.98;41.68
40794;BME280;26502;51.886;15.604;2023-08-21T15:47:04;101231.50;;;29.08;41.54
40794;BME280;26502;51.886;15.604;2023-08-21T15:52:10;101230.44;;;29.36;41.23
40794;BME280;26502;51.886;15.604;2023-08-21T15:57:16;101223.17;;;29.71;40.94
40794;BME280;26502;51.886;15.604;2023-08-21T16:02:23;101214.59;;;30.11;40.36
40794;BME280;26502;51.886;15.604;2023-08-21T16:07:29;101219.77;;;30.26;40.23
40794;BME280;26502;51.886;15.604;2023-08-21T16:12:35;101222.52;;;30.53;40.04
40794;BME280;26502;51.886;15.604;2023-08-21T16:17:40;101210.91;;;30.77;39.58
40794;BME280;26502;51.886;15.604;2023-08-21T16:22:47;101202.98;;;30.89;39.31
40794;BME280;26502;51.886;15.604;2023-08-21T16:27:54;101201.95;;;30.85;38.93
40794;BME280;26502;51.886;15.604;2023-08-21T16:33:00;101198.98;;;30.77;39.25
40794;BME280;26502;51.886;15.604;2023-08-21T16:38:06;101194.30;;;30.54;39.09
40794;BME280;26502;51.886;15.604;2023-08-21T16:43:12;101200.89;;;29.86;39.09
40794;BME280;26502;51.886;15.604;2023-08-21T16:48:18;101195.28;;;29.63;39.81
40794;BME280;26502;51.886;15.604;2023-08-21T16:53:24;101195.05;;;29.35;40.20
40794;BME280;26502;51.886;15.604;2023-08-21T16:58:30;101193.35;;;29.11;40.58
40794;BME280;26502;51.886;15.604;2023-08-21T17:03:36;101197.34;;;28.88;41.20
40794;BME280;26502;51.886;15.604;2023-08-21T17:08:42;101200.34;;;28.65;41.98
40794;BME280;26502;51.886;15.604;2023-08-21T17:13:47;101196.77;;;28.33;42.65
40794;BME280;26502;51.886;15.604;2023-08-21T17:18:54;101198.48;;;28.14;43.10
40794;BME280;26502;51.886;15.604;2023-08-21T17:23:59;101195.96;;;28.06;43.63
40794;BME280;26502;51.886;15.604;2023-08-21T17:29:05;101196.63;;;27.83;44.12
40794;BME280;26502;51.886;15.604;2023-08-21T17:34:11;101197.90;;;27.54;44.63
40794;BME280;26502;51.886;15.604;2023-08-21T17:39:17;101197.86;;;27.30;45.16
40794;BME280;26502;51.886;15.604;2023-08-21T17:44:23;101195.00;;;27.00;45.88
40794;BME280;26502;51.886;15.604;2023-08-21T17:49:29;101201.41;;;26.76;46.36
40794;BME280;26502;51.886;15.604;2023-08-21T17:54:35;101196.65;;;26.68;46.81
40794;BME280;26502;51.886;15.604;2023-08-21T17:59:41;101196.64;;;26.54;47.16
40794;BME280;26502;51.886;15.604;2023-08-21T18:04:47;101195.20;;;26.42;47.48
40794;BME280;26502;51.886;15.604;2023-08-21T18:09:53;101197.87;;;26.29;47.95
40794;BME280;26502;51.886;15.604;2023-08-21T18:14:59;101201.55;;;26.14;48.25
40794;BME280;26502;51.886;15.604;2023-08-21T18:20:07;101207.59;;;26.04;48.61
40794;BME280;26502;51.886;15.604;2023-08-21T18:25:14;101212.73;;;25.87;49.05
40794;BME280;26502;51.886;15.604;2023-08-21T18:30:20;101215.81;;;25.57;49.35
40794;BME280;26502;51.886;15.604;2023-08-21T18:35:25;101227.31;;;25.27;49.79
40794;BME280;26502;51.886;15.604;2023-08-21T18:40:32;101238.73;;;25.08;50.06
40794;BME280;26502;51.886;15.604;2023-08-21T18:45:38;101242.02;;;24.97;50.49
40794;BME280;26502;51.886;15.604;2023-08-21T18:50:45;101240.97;;;24.69;50.78
40794;BME280;26502;51.886;15.604;2023-08-21T18:55:51;101237.59;;;24.52;51.15
40794;BME280;26502;51.886;15.604;2023-08-21T19:00:58;101231.16;;;24.33;51.48
40794;BME280;26502;51.886;15.604;2023-08-21T19:06:04;101228.92;;;24.18;51.75
40794;BME280;26502;51.886;15.604;2023-08-21T19:11:10;101227.63;;;24.03;52.34
40794;BME280;26502;51.886;15.604;2023-08-21T19:16:16;101225.09;;;24.00;52.51
40794;BME280;26502;51.886;15.604;2023-08-21T19:21:23;101221.59;;;23.87;52.76
40794;BME280;26502;51.886;15.604;2023-08-21T19:26:29;101227.50;;;23.77;53.10
40794;BME280;26502;51.886;15.604;2023-08-21T19:31:35;101229.48;;;23.56;53.39
40794;BME280;26502;51.886;15.604;2023-08-21T19:36:40;101232.21;;;23.47;53.42
40794;BME280;26502;51.886;15.604;2023-08-21T19:41:47;101236.34;;;23.22;53.72
40794;BME280;26502;51.886;15.604;2023-08-21T19:46:53;101234.70;;;23.07;54.14
40794;BME280;26502;51.886;15.604;2023-08-21T19:51:59;101239.98;;;22.95;54.46
40794;BME280;26502;51.886;15.604;2023-08-21T19:57:06;101242.02;;;22.77;54.47
40794;BME280;26502;51.886;15.604;2023-08-21T20:02:14;101246.42;;;22.59;54.75
40794;BME280;26502;51.886;15.604;2023-08-21T20:07:21;101249.25;;;22.45;55.23
40794;BME280;26502;51.886;15.604;2023-08-21T20:12:28;101252.24;;;22.37;55.42
40794;BME280;26502;51.886;15.604;2023-08-21T20:17:37;101249.39;;;22.23;55.71
40794;BME280;26502;51.886;15.604;2023-08-21T20:22:46;101248.09;;;22.06;56.09
40794;BME280;26502;51.886;15.604;2023-08-21T20:27:52;101250.19;;;22.07;56.12
40794;BME280;26502;51.886;15.604;2023-08-21T20:32:58;101246.95;;;21.84;56.34
40794;BME280;26502;51.886;15.604;2023-08-21T20:38:05;101245.23;;;21.65;56.58
40794;BME280;26502;51.886;15.604;2023-08-21T20:43:13;101244.78;;;21.69;56.76
40794;BME280;26502;51.886;15.604;2023-08-21T20:48:21;101242.64;;;21.71;56.94
40794;BME280;26502;51.886;15.604;2023-08-21T20:53:29;101250.09;;;21.68;57.15
40794;BME280;26502;51.886;15.604;2023-08-21T20:58:36;101247.34;;;21.52;57.08
40794;BME280;26502;51.886;15.604;2023-08-21T21:03:43;101252.73;;;21.50;57.20
40794;BME280;26502;51.886;15.604;2023-08-21T21:08:49;101263.11;;;21.25;57.24
40794;BME280;26502;51.886;15.604;2023-08-21T21:13:55;101266.63;;;20.77;57.34
40794;BME280;26502;51.886;15.604;2023-08-21T21:19:01;101276.00;;;20.55;58.05
40794;BME280;26502;51.886;15.604;2023-08-21T21:24:08;101277.80;;;20.52;58.38
40794;BME280;26502;51.886;15.604;2023-08-21T21:29:14;101273.55;;;20.46;58.52
40794;BME280;26502;51.886;15.604;2023-08-21T21:34:20;101281.09;;;20.41;58.88
40794;BME280;26502;51.886;15.604;2023-08-21T21:39:26;101274.06;;;20.46;59.06
40794;BME280;26502;51.886;15.604;2023-08-21T21:44:33;101278.07;;;20.43;59.15
40794;BME280;26502;51.886;15.604;2023-08-21T21:49:38;101271.58;;;20.40;59.18
40794;BME280;26502;51.886;15.604;2023-08-21T21:54:44;101263.83;;;20.34;59.28
40794;BME280;26502;51.886;15.604;2023-08-21T21:59:50;101258.70;;;20.21;59.42
40794;BME280;26502;51.886;15.604;2023-08-21T22:04:56;101254.18;;;20.16;59.36
40794;BME280;26502;51.886;15.604;2023-08-21T22:10:02;101255.70;;;20.00;59.48
40794;BME280;26502;51.886;15.604;2023-08-21T22:15:09;101252.89;;;19.87;59.90
40794;BME280;26502;51.886;15.604;2023-08-21T22:20:16;101256.39;;;19.89;59.97
40794;BME280;26502;51.886;15.604;2023-08-21T22:25:22;101256.65;;;19.73;59.91
40794;BME280;26502;51.886;15.604;2023-08-21T22:30:27;101251.36;;;19.68;60.26
40794;BME280;26502;51.886;15.604;2023-08-21T22:35:33;101246.06;;;19.66;60.29
40794;BME280;26502;51.886;15.604;2023-08-21T22:40:39;101249.16;;;19.62;60.34
40794;BME280;26502;51.886;15.604;2023-08-21T22:45:45;101258.21;;;19.59;60.47
40794;BME280;26502;51.886;15.604;2023-08-21T22:50:50;101264.63;;;19.51;60.40
40794;BME280;26502;51.886;15.604;2023-08-21T22:55:56;101261.47;;;19.47;60.45
40794;BME280;26502;51.886;15.604;2023-08-21T23:01:02;101262.45;;;19.40;60.58
40794;BME280;26502;51.886;15.604;2023-08-21T23:06:08;101266.31;;;19.26;60.62
40794;BME280;26502;51.886;15.604;2023-08-21T23:11:14;101270.10;;;19.08;60.92
40794;BME280;26502;51.886;15.604;2023-08-21T23:16:20;101261.39;;;19.09;61.11
40794;BME280;26502;51.886;15.604;2023-08-21T23:21:26;101257.61;;;19.00;61.14
40794;BME280;26502;51.886;15.604;2023-08-21T23:26:32;101249.58;;;18.89;61.36
40794;BME280;26502;51.886;15.604;2023-08-21T23:31:38;101241.95;;;18.87;61.46
40794;BME280;26502;51.886;15.604;2023-08-21T23:36:44;101248.72;;;18.81;61.62
40794;BME280;26502;51.886;15.604;2023-08-21T23:41:49;101249.50;;;18.71;61.71
40794;BME280;26502;51.886;15.604;2023-08-21T23:46:55;101256.88;;;18.68;61.93
40794;BME280;26502;51.886;15.604;2023-08-21T23:52:01;101252.63;;;18.63;62.02
40794;BME280;26502;51.886;15.604;2023-08-21T23:57:08;101255.34;;;18.66;62.09
